createdAt,value
2023-02-07T00:01:57.868Z,-6.07
2023-02-07T00:03:57.847Z,-6
2023-02-07T00:05:06.424Z,-6.03
2023-02-07T00:07:06.471Z,-6.1
2023-02-07T00:09:06.404Z,-6.03
2023-02-07T00:11:06.419Z,-5.98
2023-02-07T00:13:06.541Z,-6.02
2023-02-07T00:15:06.419Z,-5.98
2023-02-07T00:17:06.423Z,-5.98
2023-02-07T00:19:06.461Z,-5.95
2023-02-07T00:20:33.593Z,-6
2023-02-07T00:22:33.559Z,-5.87
2023-02-07T00:24:33.584Z,-5.86
2023-02-07T00:26:33.628Z,-5.89
2023-02-07T00:28:33.906Z,-5.84
2023-02-07T00:30:33.672Z,-5.77
2023-02-07T00:32:33.545Z,-5.86
2023-02-07T00:35:28.685Z,-5.62
2023-02-07T00:37:28.737Z,-5.46
2023-02-07T00:39:28.673Z,-5.51
2023-02-07T00:41:28.703Z,-5.56
2023-02-07T00:43:30.063Z,-5.59
2023-02-07T00:45:28.749Z,-5.65
2023-02-07T00:47:28.665Z,-5.54
2023-02-07T00:49:28.673Z,-5.55
2023-02-07T00:51:12.025Z,-5.75
2023-02-07T00:53:11.976Z,-5.52
2023-02-07T00:55:11.957Z,-5.5
2023-02-07T00:57:11.990Z,-5.4
2023-02-07T00:59:12.010Z,-5.4
2023-02-07T01:01:11.982Z,-5.41
2023-02-07T01:03:11.975Z,-5.33
2023-02-07T01:06:18.517Z,-5.21
2023-02-07T01:08:18.541Z,-5.26
2023-02-07T01:10:18.503Z,-5.21
2023-02-07T01:12:18.498Z,-5.2
2023-02-07T01:14:18.525Z,-5.2
2023-02-07T01:16:18.530Z,-5.27
2023-02-07T01:18:18.506Z,-5.24
2023-02-07T01:21:18.842Z,-5.24
2023-02-07T01:23:18.828Z,-5.22
2023-02-07T01:25:18.843Z,-5.27
2023-02-07T01:27:18.782Z,-5.21
2023-02-07T01:29:18.842Z,-5.24
2023-02-07T01:31:18.903Z,-5.04
2023-02-07T01:33:18.843Z,-5.09
2023-02-07T01:36:57.985Z,-5
2023-02-07T01:38:58.052Z,-5.1
2023-02-07T01:40:57.995Z,-5.05
2023-02-07T01:42:58.036Z,-5.13
2023-02-07T01:44:58.045Z,-5.13
2023-02-07T01:46:57.978Z,-5.18
2023-02-07T01:48:57.996Z,-5.01
2023-02-07T01:51:43.294Z,-4.95
2023-02-07T01:53:43.276Z,-5.09
2023-02-07T01:55:43.292Z,-5.02
2023-02-07T01:57:43.251Z,-4.99
2023-02-07T01:59:43.232Z,-4.89
2023-02-07T02:01:43.317Z,-4.85
2023-02-07T02:03:43.249Z,-4.86
2023-02-07T02:07:06.169Z,-4.86
2023-02-07T02:09:06.104Z,-4.93
2023-02-07T02:11:06.107Z,-4.9
2023-02-07T02:13:06.133Z,-5.06
2023-02-07T02:15:06.102Z,-4.93
2023-02-07T02:17:06.142Z,-4.93
2023-02-07T02:19:06.098Z,-4.87
2023-02-07T02:22:35.080Z,-4.83
2023-02-07T02:24:34.999Z,-4.9
2023-02-07T02:26:34.994Z,-4.91
2023-02-07T02:28:35.021Z,-4.8
2023-02-07T02:30:35.038Z,-4.81
2023-02-07T02:32:35.013Z,-4.76
2023-02-07T02:34:34.986Z,-4.84
2023-02-07T02:36:46.203Z,-4.79
2023-02-07T02:38:46.290Z,-4.77
2023-02-07T02:40:46.214Z,-4.81
2023-02-07T02:42:46.279Z,-4.79
2023-02-07T02:44:46.197Z,-4.69
2023-02-07T02:46:46.291Z,-4.56
2023-02-07T02:48:46.236Z,-4.53
2023-02-07T02:50:46.200Z,-4.61
2023-02-07T02:52:37.028Z,-4.53
2023-02-07T02:54:26.394Z,-4.54
2023-02-07T02:56:26.326Z,-4.52
2023-02-07T02:58:26.314Z,-4.65
2023-02-07T03:00:26.352Z,-4.81
2023-02-07T03:02:26.344Z,-4.78
2023-02-07T03:04:26.346Z,-4.51
2023-02-07T03:07:16.579Z,-4.69
2023-02-07T03:09:16.609Z,-4.61
2023-02-07T03:11:16.596Z,-4.68
2023-02-07T03:13:16.628Z,-4.93
2023-02-07T03:15:16.626Z,-5.03
2023-02-07T03:17:16.566Z,-4.76
2023-02-07T03:19:16.563Z,-4.66
2023-02-07T03:22:33.550Z,-4.76
2023-02-07T03:24:33.526Z,-4.63
2023-02-07T03:26:33.579Z,-4.6
2023-02-07T03:28:33.508Z,-4.83
2023-02-07T03:30:33.598Z,-4.8
2023-02-07T03:32:33.511Z,-4.79
2023-02-07T03:34:33.482Z,-4.75
2023-02-07T03:37:55.615Z,-4.81
2023-02-07T03:39:55.558Z,-4.68
2023-02-07T03:41:55.609Z,-4.73
2023-02-07T03:43:55.613Z,-4.56
2023-02-07T03:45:55.568Z,-4.5
2023-02-07T03:47:55.580Z,-4.35
2023-02-07T03:49:55.555Z,-4.56
2023-02-07T03:53:20.107Z,-4.55
2023-02-07T03:55:20.470Z,-4.49
2023-02-07T03:57:20.438Z,-4.56
2023-02-07T03:59:20.207Z,-4.45
2023-02-07T04:01:20.139Z,-4.6
2023-02-07T04:03:20.342Z,-4.6
2023-02-07T04:05:20.077Z,-4.73
2023-02-07T04:08:21.518Z,-4.7
2023-02-07T04:10:21.479Z,-4.48
2023-02-07T04:12:21.480Z,-4.26
2023-02-07T04:14:21.565Z,-4.3
2023-02-07T04:16:21.510Z,-4.35
2023-02-07T04:18:21.506Z,-4.39
2023-02-07T04:20:21.480Z,-4.35
2023-02-07T04:23:08.295Z,-4.32
2023-02-07T04:25:08.251Z,-4.33
2023-02-07T04:27:08.232Z,-4.2
2023-02-07T04:29:08.289Z,-4.32
2023-02-07T04:31:08.276Z,-4.46
2023-02-07T04:33:08.224Z,-4.29
2023-02-07T04:35:08.270Z,-4.3
2023-02-07T04:38:57.212Z,-4.64
2023-02-07T04:40:57.242Z,-5.13
2023-02-07T04:42:57.164Z,-4.89
2023-02-07T04:44:57.181Z,-4.63
2023-02-07T04:46:57.224Z,-4.56
2023-02-07T04:48:57.213Z,-4.55
2023-02-07T04:50:57.227Z,-4.47
2023-02-07T04:54:11.351Z,-4.4
2023-02-07T04:56:11.336Z,-4.38
2023-02-07T04:58:11.235Z,-4.24
2023-02-07T05:00:11.242Z,-4.23
2023-02-07T05:02:11.248Z,-4.3
2023-02-07T05:04:11.298Z,-4.28
2023-02-07T05:06:11.234Z,-4.45
2023-02-07T05:09:16.590Z,-4.4
2023-02-07T05:11:16.466Z,-4.35
2023-02-07T05:13:16.542Z,-4.41
2023-02-07T05:15:16.472Z,-4.54
2023-02-07T05:17:16.524Z,-4.52
2023-02-07T05:19:16.518Z,-4.37
2023-02-07T05:21:16.476Z,-4.27
2023-02-07T05:24:15.095Z,-4.34
2023-02-07T05:26:15.080Z,-4.36
2023-02-07T05:28:15.102Z,-4.51
2023-02-07T05:30:15.082Z,-4.71
2023-02-07T05:32:15.119Z,-4.65
2023-02-07T05:34:15.120Z,-4.61
2023-02-07T05:36:15.072Z,-4.58
2023-02-07T05:39:27.351Z,-4.59
2023-02-07T05:41:27.376Z,-4.5
2023-02-07T05:43:27.358Z,-4.46
2023-02-07T05:45:27.365Z,-4.35
2023-02-07T05:47:27.420Z,-4.37
2023-02-07T05:49:27.377Z,-4.36
2023-02-07T05:51:27.306Z,-4.28
2023-02-07T05:54:15.321Z,-4.16
2023-02-07T05:56:15.570Z,-4
2023-02-07T05:58:15.264Z,-4.07
2023-02-07T06:00:15.274Z,-4.15
2023-02-07T06:02:15.420Z,-4.13
2023-02-07T06:04:15.267Z,-4.24
2023-02-07T06:06:15.453Z,-4.33
2023-02-07T06:10:10.084Z,-4.44
2023-02-07T06:12:10.104Z,-4.33
2023-02-07T06:14:10.054Z,-4.35
2023-02-07T06:16:10.118Z,-4.36
2023-02-07T06:18:10.090Z,-4.25
2023-02-07T06:20:10.037Z,-4.31
2023-02-07T06:22:10.117Z,-4.05
2023-02-07T06:24:47.555Z,-4.64
2023-02-07T06:26:47.519Z,-4.4
2023-02-07T06:28:47.567Z,-4.72
2023-02-07T06:30:47.632Z,-4.04
2023-02-07T06:32:47.505Z,-3.89
2023-02-07T06:34:47.562Z,-3.9
2023-02-07T06:36:47.561Z,-3.83
2023-02-07T06:39:57.383Z,-3.6
2023-02-07T06:41:57.413Z,-3.49
2023-02-07T06:43:57.396Z,-3.31
2023-02-07T06:45:57.408Z,-3.46
2023-02-07T06:47:57.415Z,-3.31
2023-02-07T06:49:57.359Z,-3.3
2023-02-07T06:51:57.381Z,-3.43
2023-02-07T06:55:29.514Z,-3.85
2023-02-07T06:57:29.433Z,-3.58
2023-02-07T06:59:29.432Z,-3.47
2023-02-07T07:01:29.525Z,-3.06
2023-02-07T07:03:29.503Z,-2.89
2023-02-07T07:05:29.467Z,-2.94
2023-02-07T07:07:29.459Z,-3.11
2023-02-07T07:10:03.100Z,-3.1
2023-02-07T07:12:03.104Z,-2.85
2023-02-07T07:14:03.100Z,-2.79
2023-02-07T07:16:03.065Z,-2.79
2023-02-07T07:18:03.032Z,-3.05
2023-02-07T07:20:03.106Z,-2.94
2023-02-07T07:22:03.035Z,-2.66
2023-02-07T07:24:03.038Z,-2.33
2023-02-07T07:25:08.178Z,-2.17
2023-02-07T07:27:08.159Z,-2.49
2023-02-07T07:29:08.175Z,-2.8
2023-02-07T07:31:08.350Z,-2.26
2023-02-07T07:33:08.158Z,-2.03
2023-02-07T07:35:08.171Z,-1.73
2023-02-07T07:37:08.109Z,-1.62
2023-02-07T07:39:08.124Z,-1.57
2023-02-07T07:40:40.369Z,-1.34
2023-02-07T07:42:40.043Z,-1.46
2023-02-07T07:44:40.007Z,-1.3
2023-02-07T07:46:40.081Z,-1.15
2023-02-07T07:48:40.005Z,-0.96
2023-02-07T07:50:40.413Z,-0.99
2023-02-07T07:52:40.019Z,-0.89
2023-02-07T07:55:30.333Z,-0.48
2023-02-07T07:57:30.276Z,-1.71
2023-02-07T07:59:30.293Z,-1.71
2023-02-07T08:01:30.342Z,-1.61
2023-02-07T08:03:30.320Z,-1.56
2023-02-07T08:05:30.350Z,-2.13
2023-02-07T08:07:30.651Z,-1.39
2023-02-07T08:09:30.269Z,-0.79
2023-02-07T08:11:00.807Z,-0.69
2023-02-07T08:13:00.862Z,-1.44
2023-02-07T08:15:00.664Z,-1.88
2023-02-07T08:17:00.591Z,-1.86
2023-02-07T08:19:00.561Z,-1.14
2023-02-07T08:21:00.538Z,-0.95
2023-02-07T08:23:00.607Z,-1.66
2023-02-07T08:26:03.744Z,-1.17
2023-02-07T08:28:04.647Z,-0.75
2023-02-07T08:30:03.718Z,-1.42
2023-02-07T08:32:03.872Z,-0.87
2023-02-07T08:34:03.686Z,-1.04
2023-02-07T08:36:03.695Z,-0.9
2023-02-07T08:38:03.733Z,-0.37
2023-02-07T08:41:05.228Z,-0.42
2023-02-07T08:43:05.192Z,-0.68
2023-02-07T08:45:05.262Z,0.09
2023-02-07T08:47:05.219Z,-0.09
2023-02-07T08:49:05.217Z,-0.36
2023-02-07T08:51:05.182Z,0.21
2023-02-07T08:53:05.167Z,-0.13
2023-02-07T08:55:05.211Z,0.27
2023-02-07T08:56:24.494Z,0.53
2023-02-07T08:58:24.478Z,0.53
2023-02-07T09:00:24.684Z,-0.91
2023-02-07T09:02:24.611Z,-1.18
2023-02-07T09:04:24.494Z,-0.67
2023-02-07T09:06:24.538Z,-0.82
2023-02-07T09:08:24.487Z,-0.6
2023-02-07T09:11:21.610Z,-0.11
2023-02-07T09:13:21.553Z,-0.04
2023-02-07T09:15:21.574Z,-0.47
2023-02-07T09:17:21.641Z,-0.02
2023-02-07T09:19:21.587Z,-0.88
2023-02-07T09:21:21.566Z,-0.32
2023-02-07T09:23:21.594Z,0.09
2023-02-07T09:25:21.543Z,0.03
2023-02-07T09:27:01.313Z,0.54
2023-02-07T09:29:01.296Z,-0.13
2023-02-07T09:31:02.006Z,-0.3
2023-02-07T09:33:01.359Z,1.79
2023-02-07T09:35:01.349Z,2.01
2023-02-07T09:37:01.294Z,2.47
2023-02-07T09:39:01.248Z,2.43
2023-02-07T09:41:59.265Z,1.87
2023-02-07T09:43:59.402Z,1.82
2023-02-07T09:45:59.305Z,2.38
2023-02-07T09:47:59.211Z,1.31
2023-02-07T09:49:59.200Z,0.98
2023-02-07T09:51:59.219Z,1.86
2023-02-07T09:53:59.197Z,2.12
2023-02-07T09:57:16.058Z,0.42
2023-02-07T09:59:16.105Z,1.61
2023-02-07T10:01:16.112Z,2.17
2023-02-07T10:03:16.037Z,1.62
2023-02-07T10:05:16.089Z,0.56
2023-02-07T10:07:16.058Z,1.94
2023-02-07T10:09:16.041Z,2.42
2023-02-07T10:12:10.015Z,2.73
2023-02-07T10:14:09.959Z,2.96
2023-02-07T10:16:10.035Z,2.47
2023-02-07T10:18:10.005Z,1.74
2023-02-07T10:20:09.983Z,0.85
2023-02-07T10:22:10.016Z,1.68
2023-02-07T10:24:09.998Z,0.76
2023-02-07T10:27:52.983Z,0.98
2023-02-07T10:29:52.970Z,1.38
2023-02-07T10:31:53.009Z,1.27
2023-02-07T10:33:52.899Z,0.7
2023-02-07T10:35:52.901Z,0.43
2023-02-07T10:37:52.922Z,1.01
2023-02-07T10:39:52.949Z,1.27
2023-02-07T10:43:15.022Z,1.18
2023-02-07T10:45:14.970Z,1.8
2023-02-07T10:47:14.979Z,1.57
2023-02-07T10:49:14.959Z,1.05
2023-02-07T10:51:14.987Z,0.52
2023-02-07T10:53:14.952Z,0.53
2023-02-07T10:55:14.994Z,-0.02
2023-02-07T10:58:01.422Z,-0.15
2023-02-07T10:59:55.267Z,0.33
2023-02-07T11:01:55.353Z,-0.15
2023-02-07T11:03:56.301Z,0.23
2023-02-07T11:05:55.260Z,0.52
2023-02-07T11:07:55.315Z,-0.79
2023-02-07T11:09:55.272Z,-0.69
2023-02-07T11:13:21.299Z,0
2023-02-07T11:15:21.222Z,0.03
2023-02-07T11:17:21.293Z,-0.39
2023-02-07T11:19:21.207Z,0.22
2023-02-07T11:21:21.266Z,-0.06
2023-02-07T11:23:21.219Z,0.22
2023-02-07T11:25:21.250Z,0.11
2023-02-07T11:28:41.007Z,0.82
2023-02-07T11:30:40.915Z,0.51
2023-02-07T11:32:40.916Z,-0.23
2023-02-07T11:34:40.905Z,0.59
2023-02-07T11:36:40.923Z,0.56
2023-02-07T11:38:40.887Z,1.28
2023-02-07T11:40:40.882Z,0.91
2023-02-07T11:43:06.355Z,0.21
2023-02-07T11:45:06.329Z,0.86
2023-02-07T11:47:06.321Z,0.05
2023-02-07T11:49:06.323Z,0.37
2023-02-07T11:51:06.361Z,0.19
2023-02-07T11:53:06.292Z,-0.26
2023-02-07T11:55:06.297Z,-0.94
2023-02-07T11:58:54.363Z,-0.44
2023-02-07T12:00:54.361Z,-0.85
2023-02-07T12:02:54.331Z,-0.33
2023-02-07T12:04:54.401Z,-0.7
2023-02-07T12:06:54.364Z,-1.1
2023-02-07T12:08:54.349Z,-0.89
2023-02-07T12:10:54.418Z,-0.92
2023-02-07T12:14:09.807Z,0.32
2023-02-07T12:16:09.809Z,1.11
2023-02-07T12:18:09.791Z,0.8
2023-02-07T12:20:09.749Z,0.09
2023-02-07T12:22:09.722Z,0.13
2023-02-07T12:24:09.761Z,0.64
2023-02-07T12:26:09.732Z,0.23
2023-02-07T12:29:22.878Z,-0.42
2023-02-07T12:31:22.932Z,-0.79
2023-02-07T12:33:22.806Z,-0.48
2023-02-07T12:35:22.858Z,-0.49
2023-02-07T12:37:22.844Z,-0.51
2023-02-07T12:39:22.822Z,-0.19
2023-02-07T12:41:22.855Z,-0.34
2023-02-07T12:43:56.519Z,0.09
2023-02-07T12:45:56.543Z,-0.04
2023-02-07T12:47:56.547Z,0.18
2023-02-07T12:49:56.496Z,-0.18
2023-02-07T12:51:56.561Z,-0.13
2023-02-07T12:53:56.515Z,0.44
2023-02-07T12:55:56.541Z,0.33
2023-02-07T12:59:24.955Z,0.09
2023-02-07T13:01:25.086Z,-0.3
2023-02-07T13:03:24.955Z,-0.55
2023-02-07T13:05:24.912Z,-0.45
2023-02-07T13:07:24.970Z,-0.54
2023-02-07T13:09:24.917Z,-0.81
2023-02-07T13:11:24.978Z,0.07
2023-02-07T13:14:13.549Z,0.19
2023-02-07T13:16:13.636Z,0.52
2023-02-07T13:18:13.567Z,-0.27
2023-02-07T13:20:13.686Z,-0.37
2023-02-07T13:22:13.553Z,-0.14
2023-02-07T13:24:13.558Z,0.32
2023-02-07T13:26:13.534Z,0.04
2023-02-07T13:29:19.765Z,-0.16
2023-02-07T13:31:19.784Z,-0.37
2023-02-07T13:33:19.776Z,-0.44
2023-02-07T13:35:19.736Z,0.03
2023-02-07T13:37:19.721Z,-0.35
2023-02-07T13:39:19.941Z,-0.55
2023-02-07T13:41:19.735Z,-0.6
2023-02-07T13:44:33.296Z,-0.14
2023-02-07T13:46:33.277Z,0.03
2023-02-07T13:48:33.245Z,-0.23
2023-02-07T13:50:33.295Z,0.18
2023-02-07T13:52:33.216Z,-0.16
2023-02-07T13:54:33.207Z,0.09
2023-02-07T13:56:33.240Z,-0.46
2023-02-07T14:00:22.354Z,-0.24
2023-02-07T14:02:22.373Z,0.03
2023-02-07T14:04:22.348Z,-0.87
2023-02-07T14:06:22.383Z,-0.79
2023-02-07T14:08:22.367Z,-0.74
2023-02-07T14:10:22.371Z,-0.48
2023-02-07T14:12:22.348Z,-0.76
2023-02-07T14:14:48.650Z,-1.27
2023-02-07T14:16:42.443Z,-1.07
2023-02-07T14:18:42.477Z,-1.24
2023-02-07T14:20:42.365Z,-1.43
2023-02-07T14:22:42.442Z,-1.36
2023-02-07T14:24:42.366Z,-1.1
2023-02-07T14:26:42.496Z,-1.83
2023-02-07T14:30:20.717Z,-2.31
2023-02-07T14:32:20.906Z,-1.9
2023-02-07T14:34:20.685Z,-2.12
2023-02-07T14:36:20.673Z,-1.99
2023-02-07T14:38:20.736Z,-1.81
2023-02-07T14:40:20.708Z,-1.67
2023-02-07T14:42:20.690Z,-1.89
2023-02-07T14:45:02.582Z,-1.28
2023-02-07T14:47:02.549Z,-1.41
2023-02-07T14:49:02.579Z,-1.25
2023-02-07T14:51:02.529Z,-1.08
2023-02-07T14:53:02.528Z,-1.39
2023-02-07T14:55:02.655Z,-1.69
2023-02-07T14:57:02.515Z,-1.64
2023-02-07T15:00:31.276Z,-2.05
2023-02-07T15:02:31.354Z,-2.05
2023-02-07T15:04:31.242Z,-1.89
2023-02-07T15:06:32.751Z,-2.02
2023-02-07T15:08:31.267Z,-2.17
2023-02-07T15:10:31.318Z,-1.91
2023-02-07T15:12:31.288Z,-1.76
2023-02-07T15:16:09.922Z,-1.79
2023-02-07T15:18:09.903Z,-1.8
2023-02-07T15:20:10.177Z,-1.62
2023-02-07T15:22:24.086Z,-1.51
2023-02-07T15:24:10.099Z,-1.58
2023-02-07T15:26:10.008Z,-2.05
2023-02-07T15:28:18.237Z,-2.42
2023-02-07T15:31:11.151Z,-2.57
2023-02-07T15:33:11.041Z,-2.42
2023-02-07T15:35:11.165Z,-2.88
2023-02-07T15:37:10.827Z,-2.89
2023-02-07T15:39:10.903Z,-2.65
2023-02-07T15:41:10.773Z,-2.48
2023-02-07T15:43:10.844Z,-2.86
2023-02-07T15:45:56.103Z,-2.55
2023-02-07T15:47:55.940Z,-2.61
2023-02-07T15:49:55.917Z,-2.69
2023-02-07T15:51:56.205Z,-2.7
2023-02-07T15:53:55.984Z,-2.61
2023-02-07T15:55:55.942Z,-2.45
2023-02-07T15:57:56.149Z,-2.43
2023-02-07T16:01:39.631Z,-2.67
2023-02-07T16:03:39.607Z,-2.73
2023-02-07T16:05:39.551Z,-2.88
2023-02-07T16:07:39.516Z,-2.95
2023-02-07T16:09:39.530Z,-2.84
2023-02-07T16:11:39.531Z,-2.85
2023-02-07T16:13:39.493Z,-3.06
2023-02-07T16:16:03.233Z,-2.95
2023-02-07T16:18:03.292Z,-2.95
2023-02-07T16:20:03.218Z,-3
2023-02-07T16:22:03.345Z,-2.92
2023-02-07T16:24:03.256Z,-2.94
2023-02-07T16:26:03.194Z,-2.99
2023-02-07T16:28:03.225Z,-2.97
2023-02-07T16:30:03.265Z,-3.1
2023-02-07T16:32:00.720Z,-3.04
2023-02-07T16:34:00.605Z,-2.81
2023-02-07T16:36:00.599Z,-2.81
2023-02-07T16:38:00.580Z,-2.74
2023-02-07T16:40:00.566Z,-2.75
2023-02-07T16:42:00.608Z,-2.8
2023-02-07T16:44:00.558Z,-2.83
2023-02-07T16:46:47.071Z,-3.04
2023-02-07T16:48:47.075Z,-3.06
2023-02-07T16:50:47.078Z,-3.05
2023-02-07T16:52:47.056Z,-3.18
2023-02-07T16:54:47.130Z,-3.28
2023-02-07T16:56:47.092Z,-3.26
2023-02-07T16:58:47.034Z,-3.34
2023-02-07T17:01:55.507Z,-3.34
2023-02-07T17:03:55.453Z,-3.31
2023-02-07T17:05:55.461Z,-3.3
2023-02-07T17:07:57.461Z,-3.36
2023-02-07T17:09:55.465Z,-3.43
2023-02-07T17:11:55.461Z,-3.45
2023-02-07T17:13:55.449Z,-3.5
2023-02-07T17:16:35.057Z,-3.67
2023-02-07T17:18:34.955Z,-3.81
2023-02-07T17:20:35.273Z,-3.85
2023-02-07T17:22:34.958Z,-3.86
2023-02-07T17:24:34.948Z,-3.88
2023-02-07T17:26:34.974Z,-4.02
2023-02-07T17:28:34.945Z,-3.92
2023-02-07T17:30:35.002Z,-3.99
2023-02-07T17:32:20.361Z,-4.01
2023-02-07T17:34:20.349Z,-4.14
2023-02-07T17:36:20.396Z,-4.13
2023-02-07T17:38:20.417Z,-4.19
2023-02-07T17:40:20.341Z,-4.17
2023-02-07T17:42:20.348Z,-4.14
2023-02-07T17:44:20.416Z,-4.29
2023-02-07T17:47:48.133Z,-4.46
2023-02-07T17:49:48.077Z,-4.34
2023-02-07T17:51:48.112Z,-4.49
2023-02-07T17:53:48.106Z,-4.36
2023-02-07T17:55:48.092Z,-4.39
2023-02-07T17:57:48.092Z,-4.34
2023-02-07T17:59:48.159Z,-4.42
2023-02-07T18:02:35.984Z,-4.43
2023-02-07T18:04:35.985Z,-4.5
2023-02-07T18:06:35.932Z,-4.42
2023-02-07T18:08:35.924Z,-4.36
2023-02-07T18:10:35.991Z,-4.47
2023-02-07T18:12:35.932Z,-4.46
2023-02-07T18:14:35.959Z,-4.43
2023-02-07T18:17:33.223Z,-4.45
2023-02-07T18:19:33.153Z,-4.38
2023-02-07T18:21:33.401Z,-4.36
2023-02-07T18:23:33.305Z,-4.47
2023-02-07T18:25:33.141Z,-4.5
2023-02-07T18:27:33.464Z,-4.5
2023-02-07T18:29:33.349Z,-4.51
2023-02-07T18:33:19.499Z,-4.68
2023-02-07T18:35:19.434Z,-4.72
2023-02-07T18:37:19.503Z,-4.68
2023-02-07T18:39:19.472Z,-4.74
2023-02-07T18:41:21.151Z,-4.75
2023-02-07T18:43:19.478Z,-4.8
2023-02-07T18:45:19.447Z,-4.87
2023-02-07T18:48:30.584Z,-4.93
2023-02-07T18:50:30.629Z,-4.91
2023-02-07T18:52:30.563Z,-5.08
2023-02-07T18:54:30.542Z,-5.03
2023-02-07T18:56:30.604Z,-5.08
2023-02-07T18:58:32.916Z,-5.1
2023-02-07T19:00:30.815Z,-5.14
2023-02-07T19:03:25.990Z,-5.11
2023-02-07T19:05:25.961Z,-5.2
2023-02-07T19:07:26.031Z,-5.2
2023-02-07T19:09:25.924Z,-5.19
2023-02-07T19:11:25.947Z,-5.3
2023-02-07T19:13:25.947Z,-5.49
2023-02-07T19:15:25.980Z,-5.5
2023-02-07T19:18:38.091Z,-5.41
2023-02-07T19:20:38.340Z,-5.42
2023-02-07T19:22:38.013Z,-5.47
2023-02-07T19:24:38.053Z,-5.54
2023-02-07T19:26:38.033Z,-5.5
2023-02-07T19:28:38.113Z,-5.69
2023-02-07T19:30:38.489Z,-5.79
2023-02-07T19:33:46.446Z,-5.89
2023-02-07T19:35:46.448Z,-5.94
2023-02-07T19:37:46.406Z,-5.85
2023-02-07T19:39:46.385Z,-5.74
2023-02-07T19:41:46.433Z,-5.66
2023-02-07T19:43:46.405Z,-5.8
2023-02-07T19:45:46.503Z,-5.83
2023-02-07T19:48:53.235Z,-5.96
2023-02-07T19:50:53.303Z,-6.05
2023-02-07T19:52:53.275Z,-6.05
2023-02-07T19:54:55.042Z,-6.1
2023-02-07T19:56:53.305Z,-6.02
2023-02-07T19:58:53.271Z,-6.08
2023-02-07T20:00:53.269Z,-6.17
2023-02-07T20:03:46.908Z,-6.09
2023-02-07T20:05:46.788Z,-6.02
2023-02-07T20:07:46.786Z,-5.95
2023-02-07T20:09:46.832Z,-6.02
2023-02-07T20:11:46.801Z,-6.09
2023-02-07T20:13:46.880Z,-6.13
2023-02-07T20:15:46.889Z,-6.2
2023-02-07T20:19:29.867Z,-6.24
2023-02-07T20:21:29.776Z,-6.18
2023-02-07T20:23:29.778Z,-6.21
2023-02-07T20:25:29.851Z,-6.17
2023-02-07T20:27:29.763Z,-6.35
2023-02-07T20:29:29.761Z,-6.48
2023-02-07T20:31:29.851Z,-6.26
2023-02-07T20:34:11.130Z,-6.23
2023-02-07T20:36:11.174Z,-6.23
2023-02-07T20:38:11.237Z,-6.16
2023-02-07T20:40:11.160Z,-6.32
2023-02-07T20:42:11.148Z,-6.3
2023-02-07T20:44:11.172Z,-6.29
2023-02-07T20:46:11.125Z,-6.32
2023-02-07T20:49:57.053Z,-6.33
2023-02-07T20:51:56.985Z,-6.33
2023-02-07T20:53:57.014Z,-6.39
2023-02-07T20:55:57.004Z,-6.31
2023-02-07T20:57:56.974Z,-6.38
2023-02-07T20:59:57.007Z,-6.36
2023-02-07T21:01:56.948Z,-6.43
2023-02-07T21:04:07.934Z,-6.4
2023-02-07T21:06:07.937Z,-6.35
2023-02-07T21:08:07.943Z,-6.33
2023-02-07T21:10:07.897Z,-6.32
2023-02-07T21:12:07.949Z,-6.36
2023-02-07T21:14:07.883Z,-6.41
2023-02-07T21:16:08.070Z,-6.42
2023-02-07T21:18:07.901Z,-6.38
2023-02-07T21:19:34.517Z,-6.46
2023-02-07T21:21:34.564Z,-6.54
2023-02-07T21:23:34.523Z,-6.63
2023-02-07T21:25:34.504Z,-6.62
2023-02-07T21:27:34.566Z,-6.59
2023-02-07T21:29:34.483Z,-6.65
2023-02-07T21:31:35.847Z,-6.72
2023-02-07T21:34:41.928Z,-6.67
2023-02-07T21:36:41.982Z,-6.66
2023-02-07T21:38:41.933Z,-6.62
2023-02-07T21:40:42.935Z,-6.56
2023-02-07T21:42:41.996Z,-6.62
2023-02-07T21:44:41.916Z,-6.7
2023-02-07T21:46:41.902Z,-6.69
2023-02-07T21:50:28.896Z,-6.75
2023-02-07T21:52:28.823Z,-6.78
2023-02-07T21:54:28.892Z,-6.78
2023-02-07T21:56:28.822Z,-6.76
2023-02-07T21:58:28.870Z,-6.84
2023-02-07T22:00:28.855Z,-6.86
2023-02-07T22:02:28.856Z,-6.89
2023-02-07T22:04:47.693Z,-7.02
2023-02-07T22:06:47.622Z,-6.95
2023-02-07T22:08:47.642Z,-6.96
2023-02-07T22:10:47.711Z,-6.94
2023-02-07T22:12:47.646Z,-6.9
2023-02-07T22:14:47.672Z,-6.97
2023-02-07T22:16:47.651Z,-7.01
2023-02-07T22:18:47.752Z,-6.98
2023-02-07T22:20:41.270Z,-6.95
2023-02-07T22:22:40.765Z,-7.01
2023-02-07T22:24:40.781Z,-7.07
2023-02-07T22:26:40.798Z,-7.13
2023-02-07T22:28:40.774Z,-7.18
2023-02-07T22:30:41.080Z,-7.21
2023-02-07T22:32:40.782Z,-7.11
2023-02-07T22:35:46.724Z,-7.05
2023-02-07T22:37:46.681Z,-7.05
2023-02-07T22:39:46.698Z,-7.07
2023-02-07T22:41:46.749Z,-7
2023-02-07T22:43:46.729Z,-7.01
2023-02-07T22:45:46.776Z,-7.07
2023-02-07T22:47:46.670Z,-7.09
2023-02-07T22:51:01.483Z,-7.09
2023-02-07T22:53:01.460Z,-7.15
2023-02-07T22:55:01.464Z,-7.14
2023-02-07T22:57:01.497Z,-7.22
2023-02-07T22:59:01.424Z,-7.28
2023-02-07T23:01:01.439Z,-7.23
2023-02-07T23:03:01.465Z,-7.14
2023-02-07T23:05:46.556Z,-7.19
2023-02-07T23:07:46.560Z,-7.19
2023-02-07T23:09:46.556Z,-7.12
2023-02-07T23:11:46.612Z,-7.14
2023-02-07T23:13:46.606Z,-7.04
2023-02-07T23:15:46.562Z,-7.01
2023-02-07T23:17:46.575Z,-6.95
2023-02-07T23:20:45.818Z,-6.91
2023-02-07T23:22:45.728Z,-7.09
2023-02-07T23:24:45.728Z,-7.08
2023-02-07T23:26:45.669Z,-6.98
2023-02-07T23:28:45.665Z,-7.08
2023-02-07T23:30:45.798Z,-7.15
2023-02-07T23:32:45.706Z,-7.1
2023-02-07T23:36:27.219Z,-7.3
2023-02-07T23:38:27.216Z,-7.22
2023-02-07T23:40:27.173Z,-7.18
2023-02-07T23:42:27.206Z,-7.13
2023-02-07T23:44:27.185Z,-7.11
2023-02-07T23:46:27.302Z,-7.15
2023-02-07T23:48:27.218Z,-7.26
2023-02-07T23:51:46.972Z,-7.42
2023-02-07T23:53:47.025Z,-7.47
2023-02-07T23:55:47.026Z,-7.31
2023-02-07T23:57:46.966Z,-7.5
2023-02-07T23:59:47.012Z,-7.45
